createdAt,value
2022-09-12T00:02:04.202Z,20.08
2022-09-12T00:04:31.809Z,20.07
2022-09-12T00:07:00.702Z,20.07
2022-09-12T00:09:28.212Z,20.07
2022-09-12T00:11:55.745Z,20.07
2022-09-12T00:14:23.264Z,20.06
2022-09-12T00:16:50.825Z,20.06
2022-09-12T00:19:18.689Z,20.06
2022-09-12T00:21:46.317Z,20.05
2022-09-12T00:24:15.192Z,20.06
2022-09-12T00:26:42.711Z,20.04
2022-09-12T00:29:11.119Z,20.03
2022-09-12T00:31:38.680Z,20.04
2022-09-12T00:34:06.249Z,20.03
2022-09-12T00:36:34.153Z,20.04
2022-09-12T00:39:01.710Z,20.02
2022-09-12T00:41:31.613Z,20.02
2022-09-12T00:43:59.857Z,20.01
2022-09-12T00:46:30.430Z,20.03
2022-09-12T00:48:59.875Z,20.01
2022-09-12T00:51:27.448Z,20.00
2022-09-12T00:53:55.157Z,20.01
2022-09-12T00:56:22.671Z,20.01
2022-09-12T00:58:53.449Z,20.01
2022-09-12T01:01:21.119Z,20.00
2022-09-12T01:03:48.685Z,20.00
2022-09-12T01:06:17.520Z,19.99
2022-09-12T01:08:45.164Z,20.00
2022-09-12T01:11:12.829Z,19.99
2022-09-12T01:13:40.492Z,19.98
2022-09-12T01:16:10.505Z,19.99
2022-09-12T01:18:52.338Z,19.99
2022-09-12T01:21:21.493Z,19.98
2022-09-12T01:24:27.195Z,19.99
2022-09-12T01:27:12.590Z,19.98
2022-09-12T01:29:48.992Z,19.96
2022-09-12T01:32:22.181Z,19.97
2022-09-12T01:34:50.930Z,19.97
2022-09-12T01:37:21.943Z,19.97
2022-09-12T01:39:52.116Z,19.96
2022-09-12T01:42:21.808Z,19.96
2022-09-12T01:44:51.392Z,19.95
2022-09-12T01:47:22.383Z,19.95
2022-09-12T01:49:53.033Z,19.95
2022-09-12T01:52:22.421Z,19.94
2022-09-12T01:54:51.685Z,19.96
2022-09-12T01:57:21.619Z,19.95
2022-09-12T01:59:50.147Z,19.94
2022-09-12T02:02:19.279Z,19.94
2022-09-12T02:04:52.129Z,19.93
2022-09-12T02:07:20.991Z,19.93
2022-09-12T02:09:50.202Z,19.94
2022-09-12T02:12:18.704Z,19.92
2022-09-12T02:14:47.624Z,19.93
2022-09-12T02:17:15.847Z,19.93
2022-09-12T02:19:45.604Z,19.93
2022-09-12T02:22:15.900Z,19.92
2022-09-12T02:24:44.680Z,19.93
2022-09-12T02:27:13.628Z,19.91
2022-09-12T02:29:41.518Z,19.90
2022-09-12T02:32:11.991Z,19.91
2022-09-12T02:34:43.164Z,19.91
2022-09-12T02:37:17.178Z,19.90
2022-09-12T02:39:45.619Z,19.91
2022-09-12T02:42:13.316Z,19.90
2022-09-12T02:44:40.914Z,19.90
2022-09-12T02:47:09.945Z,19.90
